sensor_id;sensor_type;location;lat;lon;timestamp;P1;durP1;ratioP1;P2;durP2;ratioP2
70078;SDS011;57451;52.496;13.456;2022-08-18T00:01:48;10.30;;;8.90;;
70078;SDS011;57451;52.496;13.456;2022-08-18T00:04:19;13.13;;;9.07;;
70078;SDS011;57451;52.496;13.456;2022-08-18T00:06:46;10.75;;;8.85;;
70078;SDS011;57451;52.496;13.456;2022-08-18T00:09:13;11.18;;;8.77;;
70078;SDS011;57451;52.496;13.456;2022-08-18T00:11:39;12.43;;;9.02;;
70078;SDS011;57451;52.496;13.456;2022-08-18T00:14:07;11.60;;;8.90;;
70078;SDS011;57451;52.496;13.456;2022-08-18T00:16:36;11.93;;;8.75;;
70078;SDS011;57451;52.496;13.456;2022-08-18T00:19:02;12.02;;;8.73;;
70078;SDS011;57451;52.496;13.456;2022-08-18T00:21:28;10.85;;;8.80;;
70078;SDS011;57451;52.496;13.456;2022-08-18T00:23:56;11.93;;;8.45;;
70078;SDS011;57451;52.496;13.456;2022-08-18T00:26:22;11.75;;;9.07;;
70078;SDS011;57451;52.496;13.456;2022-08-18T00:28:48;12.68;;;8.63;;
70078;SDS011;57451;52.496;13.456;2022-08-18T00:31:15;12.10;;;9.25;;
70078;SDS011;57451;52.496;13.456;2022-08-18T00:33:41;11.02;;;9.10;;
70078;SDS011;57451;52.496;13.456;2022-08-18T00:36:08;12.23;;;8.77;;
70078;SDS011;57451;52.496;13.456;2022-08-18T00:38:34;12.23;;;8.80;;
70078;SDS011;57451;52.496;13.456;2022-08-18T00:41:02;13.07;;;8.77;;
70078;SDS011;57451;52.496;13.456;2022-08-18T00:43:31;11.50;;;8.95;;
70078;SDS011;57451;52.496;13.456;2022-08-18T00:46:05;11.05;;;9.20;;
70078;SDS011;57451;52.496;13.456;2022-08-18T00:48:32;12.15;;;8.88;;
70078;SDS011;57451;52.496;13.456;2022-08-18T00:50:59;12.33;;;8.87;;
70078;SDS011;57451;52.496;13.456;2022-08-18T00:53:30;11.05;;;8.75;;
70078;SDS011;57451;52.496;13.456;2022-08-18T00:56:04;10.40;;;8.70;;
70078;SDS011;57451;52.496;13.456;2022-08-18T00:58:37;12.88;;;8.77;;
70078;SDS011;57451;52.496;13.456;2022-08-18T01:01:07;10.43;;;8.73;;
70078;SDS011;57451;52.496;13.456;2022-08-18T01:03:36;11.10;;;8.30;;
70078;SDS011;57451;52.496;13.456;2022-08-18T01:06:06;14.95;;;8.88;;
70078;SDS011;57451;52.496;13.456;2022-08-18T01:08:39;12.43;;;9.07;;
70078;SDS011;57451;52.496;13.456;2022-08-18T01:11:07;12.98;;;9.02;;
70078;SDS011;57451;52.496;13.456;2022-08-18T01:13:38;11.60;;;9.25;;
70078;SDS011;57451;52.496;13.456;2022-08-18T01:16:06;12.63;;;9.38;;
70078;SDS011;57451;52.496;13.456;2022-08-18T01:18:51;11.77;;;8.90;;
70078;SDS011;57451;52.496;13.456;2022-08-18T01:21:38;11.73;;;8.85;;
70078;SDS011;57451;52.496;13.456;2022-08-18T01:24:20;11.82;;;9.52;;
70078;SDS011;57451;52.496;13.456;2022-08-18T01:27:09;14.57;;;9.10;;
70078;SDS011;57451;52.496;13.456;2022-08-18T01:29:39;12.13;;;9.03;;
70078;SDS011;57451;52.496;13.456;2022-08-18T01:32:05;10.93;;;9.60;;
70078;SDS011;57451;52.496;13.456;2022-08-18T01:34:32;16.25;;;9.85;;
70078;SDS011;57451;52.496;13.456;2022-08-18T01:36:58;11.63;;;9.18;;
70078;SDS011;57451;52.496;13.456;2022-08-18T01:39:25;11.30;;;9.32;;
70078;SDS011;57451;52.496;13.456;2022-08-18T01:41:52;13.63;;;9.83;;
70078;SDS011;57451;52.496;13.456;2022-08-18T01:44:18;11.85;;;9.55;;
70078;SDS011;57451;52.496;13.456;2022-08-18T01:46:44;13.50;;;9.52;;
70078;SDS011;57451;52.496;13.456;2022-08-18T01:49:11;12.40;;;9.63;;
70078;SDS011;57451;52.496;13.456;2022-08-18T01:51:37;12.57;;;9.75;;
70078;SDS011;57451;52.496;13.456;2022-08-18T01:54:08;15.07;;;10.03;;
70078;SDS011;57451;52.496;13.456;2022-08-18T01:56:38;12.20;;;9.52;;
70078;SDS011;57451;52.496;13.456;2022-08-18T01:59:07;12.82;;;10.30;;
70078;SDS011;57451;52.496;13.456;2022-08-18T02:01:39;14.90;;;10.23;;
70078;SDS011;57451;52.496;13.456;2022-08-18T02:04:07;13.25;;;9.80;;
70078;SDS011;57451;52.496;13.456;2022-08-18T02:06:35;11.43;;;9.83;;
70078;SDS011;57451;52.496;13.456;2022-08-18T02:09:02;11.45;;;10.02;;
70078;SDS011;57451;52.496;13.456;2022-08-18T02:11:29;14.13;;;9.90;;
70078;SDS011;57451;52.496;13.456;2022-08-18T02:13:56;13.65;;;10.10;;
70078;SDS011;57451;52.496;13.456;2022-08-18T02:16:22;14.60;;;10.20;;
70078;SDS011;57451;52.496;13.456;2022-08-18T02:18:49;16.13;;;10.27;;
70078;SDS011;57451;52.496;13.456;2022-08-18T02:21:15;15.27;;;10.70;;
70078;SDS011;57451;52.496;13.456;2022-08-18T02:23:44;13.75;;;10.20;;
70078;SDS011;57451;52.496;13.456;2022-08-18T02:26:12;13.20;;;10.05;;
70078;SDS011;57451;52.496;13.456;2022-08-18T02:28:40;13.85;;;10.27;;
70078;SDS011;57451;52.496;13.456;2022-08-18T02:31:09;13.60;;;9.80;;
70078;SDS011;57451;52.496;13.456;2022-08-18T02:33:38;14.32;;;10.55;;
70078;SDS011;57451;52.496;13.456;2022-08-18T02:36:05;13.52;;;10.63;;
70078;SDS011;57451;52.496;13.456;2022-08-18T02:38:32;12.60;;;9.85;;
70078;SDS011;57451;52.496;13.456;2022-08-18T02:40:59;14.88;;;10.30;;
70078;SDS011;57451;52.496;13.456;2022-08-18T02:43:27;15.67;;;10.43;;
70078;SDS011;57451;52.496;13.456;2022-08-18T02:45:54;13.38;;;9.88;;
70078;SDS011;57451;52.496;13.456;2022-08-18T02:48:22;14.20;;;9.70;;
70078;SDS011;57451;52.496;13.456;2022-08-18T02:51:00;13.57;;;9.80;;
70078;SDS011;57451;52.496;13.456;2022-08-18T02:53:28;12.10;;;10.40;;
70078;SDS011;57451;52.496;13.456;2022-08-18T02:55:54;13.07;;;10.17;;
70078;SDS011;57451;52.496;13.456;2022-08-18T02:58:20;13.20;;;10.02;;
70078;SDS011;57451;52.496;13.456;2022-08-18T03:00:46;12.52;;;10.13;;
70078;SDS011;57451;52.496;13.456;2022-08-18T03:03:13;15.15;;;10.77;;
70078;SDS011;57451;52.496;13.456;2022-08-18T03:05:40;13.02;;;10.07;;
70078;SDS011;57451;52.496;13.456;2022-08-18T03:08:07;12.27;;;10.63;;
70078;SDS011;57451;52.496;13.456;2022-08-18T03:10:35;14.82;;;9.85;;
70078;SDS011;57451;52.496;13.456;2022-08-18T03:13:01;13.20;;;11.23;;
70078;SDS011;57451;52.496;13.456;2022-08-18T03:15:27;13.45;;;10.80;;
70078;SDS011;57451;52.496;13.456;2022-08-18T03:17:54;13.45;;;10.63;;
70078;SDS011;57451;52.496;13.456;2022-08-18T03:20:20;12.73;;;10.70;;
70078;SDS011;57451;52.496;13.456;2022-08-18T03:22:48;13.00;;;10.70;;
70078;SDS011;57451;52.496;13.456;2022-08-18T03:25:14;13.85;;;10.30;;
70078;SDS011;57451;52.496;13.456;2022-08-18T03:27:40;13.75;;;10.32;;
70078;SDS011;57451;52.496;13.456;2022-08-18T03:30:07;13.25;;;10.73;;
70078;SDS011;57451;52.496;13.456;2022-08-18T03:32:33;13.00;;;10.53;;
70078;SDS011;57451;52.496;13.456;2022-08-18T03:35:00;15.15;;;10.90;;
70078;SDS011;57451;52.496;13.456;2022-08-18T03:37:26;16.70;;;11.55;;
70078;SDS011;57451;52.496;13.456;2022-08-18T03:39:53;15.90;;;11.15;;
70078;SDS011;57451;52.496;13.456;2022-08-18T03:42:20;15.38;;;11.10;;
70078;SDS011;57451;52.496;13.456;2022-08-18T03:44:46;14.17;;;11.67;;
70078;SDS011;57451;52.496;13.456;2022-08-18T03:47:12;12.98;;;10.48;;
70078;SDS011;57451;52.496;13.456;2022-08-18T03:49:38;14.73;;;10.85;;
70078;SDS011;57451;52.496;13.456;2022-08-18T03:52:06;15.38;;;10.73;;
70078;SDS011;57451;52.496;13.456;2022-08-18T03:54:34;13.80;;;10.50;;
70078;SDS011;57451;52.496;13.456;2022-08-18T03:57:02;14.63;;;11.30;;
70078;SDS011;57451;52.496;13.456;2022-08-18T03:59:29;14.57;;;10.75;;
70078;SDS011;57451;52.496;13.456;2022-08-18T04:01:56;14.02;;;11.52;;
70078;SDS011;57451;52.496;13.456;2022-08-18T04:04:23;14.15;;;11.00;;
70078;SDS011;57451;52.496;13.456;2022-08-18T04:06:52;15.88;;;11.63;;
70078;SDS011;57451;52.496;13.456;2022-08-18T04:09:22;15.50;;;11.40;;
70078;SDS011;57451;52.496;13.456;2022-08-18T04:11:49;14.05;;;11.25;;
70078;SDS011;57451;52.496;13.456;2022-08-18T04:14:17;13.75;;;11.07;;
70078;SDS011;57451;52.496;13.456;2022-08-18T04:16:45;14.93;;;11.50;;
70078;SDS011;57451;52.496;13.456;2022-08-18T04:19:13;14.48;;;11.65;;
70078;SDS011;57451;52.496;13.456;2022-08-18T04:21:42;17.00;;;12.13;;
70078;SDS011;57451;52.496;13.456;2022-08-18T04:24:10;14.23;;;11.50;;
70078;SDS011;57451;52.496;13.456;2022-08-18T04:26:39;15.90;;;11.77;;
70078;SDS011;57451;52.496;13.456;2022-08-18T04:29:07;14.77;;;11.95;;
70078;SDS011;57451;52.496;13.456;2022-08-18T04:31:36;15.70;;;11.68;;
70078;SDS011;57451;52.496;13.456;2022-08-18T04:34:02;15.30;;;11.43;;
70078;SDS011;57451;52.496;13.456;2022-08-18T04:36:29;17.30;;;11.55;;
70078;SDS011;57451;52.496;13.456;2022-08-18T04:38:59;16.10;;;12.27;;
70078;SDS011;57451;52.496;13.456;2022-08-18T04:41:25;17.92;;;12.82;;
70078;SDS011;57451;52.496;13.456;2022-08-18T04:43:52;15.50;;;12.05;;
70078;SDS011;57451;52.496;13.456;2022-08-18T04:46:19;15.87;;;12.63;;
70078;SDS011;57451;52.496;13.456;2022-08-18T04:48:47;18.63;;;11.85;;
70078;SDS011;57451;52.496;13.456;2022-08-18T04:51:14;16.67;;;12.05;;
70078;SDS011;57451;52.496;13.456;2022-08-18T04:53:43;15.13;;;11.32;;
70078;SDS011;57451;52.496;13.456;2022-08-18T04:56:12;17.08;;;12.02;;
70078;SDS011;57451;52.496;13.456;2022-08-18T04:58:42;14.47;;;11.70;;
70078;SDS011;57451;52.496;13.456;2022-08-18T05:01:08;14.57;;;11.68;;
70078;SDS011;57451;52.496;13.456;2022-08-18T05:03:34;15.85;;;11.88;;
70078;SDS011;57451;52.496;13.456;2022-08-18T05:06:02;16.83;;;12.38;;
70078;SDS011;57451;52.496;13.456;2022-08-18T05:08:29;14.88;;;11.95;;
70078;SDS011;57451;52.496;13.456;2022-08-18T05:10:56;14.90;;;11.70;;
70078;SDS011;57451;52.496;13.456;2022-08-18T05:13:22;16.48;;;12.95;;
70078;SDS011;57451;52.496;13.456;2022-08-18T05:15:53;16.95;;;12.32;;
70078;SDS011;57451;52.496;13.456;2022-08-18T05:18:21;17.63;;;12.15;;
70078;SDS011;57451;52.496;13.456;2022-08-18T05:20:49;18.90;;;12.80;;
70078;SDS011;57451;52.496;13.456;2022-08-18T05:23:17;17.57;;;12.07;;
70078;SDS011;57451;52.496;13.456;2022-08-18T05:25:44;17.65;;;12.23;;
70078;SDS011;57451;52.496;13.456;2022-08-18T05:28:11;17.85;;;12.57;;
70078;SDS011;57451;52.496;13.456;2022-08-18T05:30:38;17.33;;;12.85;;
70078;SDS011;57451;52.496;13.456;2022-08-18T05:33:05;15.70;;;12.70;;
70078;SDS011;57451;52.496;13.456;2022-08-18T05:35:32;16.10;;;12.23;;
70078;SDS011;57451;52.496;13.456;2022-08-18T05:38:07;15.80;;;12.75;;
70078;SDS011;57451;52.496;13.456;2022-08-18T05:40:44;15.95;;;12.45;;
70078;SDS011;57451;52.496;13.456;2022-08-18T05:43:20;16.88;;;12.55;;
70078;SDS011;57451;52.496;13.456;2022-08-18T05:45:46;14.65;;;12.55;;
70078;SDS011;57451;52.496;13.456;2022-08-18T05:48:15;19.33;;;12.47;;
70078;SDS011;57451;52.496;13.456;2022-08-18T05:50:41;16.48;;;12.80;;
70078;SDS011;57451;52.496;13.456;2022-08-18T05:53:08;18.58;;;13.02;;
70078;SDS011;57451;52.496;13.456;2022-08-18T05:55:39;16.40;;;12.93;;
70078;SDS011;57451;52.496;13.456;2022-08-18T05:58:31;19.70;;;13.60;;
70078;SDS011;57451;52.496;13.456;2022-08-18T06:01:03;22.10;;;12.67;;
70078;SDS011;57451;52.496;13.456;2022-08-18T06:03:33;19.60;;;13.27;;
70078;SDS011;57451;52.496;13.456;2022-08-18T06:06:04;17.77;;;12.45;;
70078;SDS011;57451;52.496;13.456;2022-08-18T06:08:35;20.95;;;12.75;;
70078;SDS011;57451;52.496;13.456;2022-08-18T06:11:08;20.48;;;12.57;;
70078;SDS011;57451;52.496;13.456;2022-08-18T06:13:36;19.83;;;13.93;;
70078;SDS011;57451;52.496;13.456;2022-08-18T06:16:07;17.25;;;12.88;;
70078;SDS011;57451;52.496;13.456;2022-08-18T06:18:42;19.40;;;12.95;;
70078;SDS011;57451;52.496;13.456;2022-08-18T06:21:29;17.30;;;12.80;;
70078;SDS011;57451;52.496;13.456;2022-08-18T06:24:05;20.23;;;12.95;;
70078;SDS011;57451;52.496;13.456;2022-08-18T06:26:45;22.50;;;12.27;;
70078;SDS011;57451;52.496;13.456;2022-08-18T06:29:25;16.83;;;12.45;;
70078;SDS011;57451;52.496;13.456;2022-08-18T06:32:03;16.95;;;12.40;;
70078;SDS011;57451;52.496;13.456;2022-08-18T06:34:41;16.90;;;12.88;;
70078;SDS011;57451;52.496;13.456;2022-08-18T06:37:23;16.58;;;13.07;;
70078;SDS011;57451;52.496;13.456;2022-08-18T06:39:58;17.57;;;12.40;;
70078;SDS011;57451;52.496;13.456;2022-08-18T06:42:26;16.45;;;12.45;;
70078;SDS011;57451;52.496;13.456;2022-08-18T06:44:59;17.00;;;13.00;;
70078;SDS011;57451;52.496;13.456;2022-08-18T06:47:29;14.65;;;12.73;;
70078;SDS011;57451;52.496;13.456;2022-08-18T06:50:03;17.52;;;12.63;;
70078;SDS011;57451;52.496;13.456;2022-08-18T06:52:33;17.27;;;13.00;;
70078;SDS011;57451;52.496;13.456;2022-08-18T06:55:03;16.33;;;12.38;;
70078;SDS011;57451;52.496;13.456;2022-08-18T06:57:31;15.43;;;13.52;;
70078;SDS011;57451;52.496;13.456;2022-08-18T07:00:04;18.60;;;13.50;;
70078;SDS011;57451;52.496;13.456;2022-08-18T07:02:39;19.95;;;13.25;;
70078;SDS011;57451;52.496;13.456;2022-08-18T07:05:17;19.73;;;13.73;;
70078;SDS011;57451;52.496;13.456;2022-08-18T07:08:05;17.27;;;13.57;;
70078;SDS011;57451;52.496;13.456;2022-08-18T07:10:38;17.23;;;12.98;;
70078;SDS011;57451;52.496;13.456;2022-08-18T07:16:16;21.20;;;14.10;;
70078;SDS011;57451;52.496;13.456;2022-08-18T07:18:45;17.43;;;12.60;;
70078;SDS011;57451;52.496;13.456;2022-08-18T07:21:22;16.60;;;13.05;;
70078;SDS011;57451;52.496;13.456;2022-08-18T07:23:57;20.27;;;13.93;;
70078;SDS011;57451;52.496;13.456;2022-08-18T07:26:25;20.73;;;14.05;;
70078;SDS011;57451;52.496;13.456;2022-08-18T07:28:51;26.35;;;14.25;;
70078;SDS011;57451;52.496;13.456;2022-08-18T07:31:23;21.20;;;13.73;;
70078;SDS011;57451;52.496;13.456;2022-08-18T07:34:02;18.75;;;13.55;;
70078;SDS011;57451;52.496;13.456;2022-08-18T07:36:33;17.30;;;13.77;;
70078;SDS011;57451;52.496;13.456;2022-08-18T07:39:07;21.08;;;14.57;;
70078;SDS011;57451;52.496;13.456;2022-08-18T07:41:39;18.73;;;13.35;;
70078;SDS011;57451;52.496;13.456;2022-08-18T07:44:14;19.93;;;14.30;;
70078;SDS011;57451;52.496;13.456;2022-08-18T07:46:50;17.23;;;13.32;;
70078;SDS011;57451;52.496;13.456;2022-08-18T07:49:21;17.02;;;13.20;;
70078;SDS011;57451;52.496;13.456;2022-08-18T07:51:52;15.35;;;12.60;;
70078;SDS011;57451;52.496;13.456;2022-08-18T07:54:31;17.27;;;13.60;;
70078;SDS011;57451;52.496;13.456;2022-08-18T07:57:08;20.53;;;13.43;;
70078;SDS011;57451;52.496;13.456;2022-08-18T07:59:40;17.80;;;13.50;;
70078;SDS011;57451;52.496;13.456;2022-08-18T08:02:20;16.75;;;13.38;;
70078;SDS011;57451;52.496;13.456;2022-08-18T08:04:55;18.50;;;14.10;;
70078;SDS011;57451;52.496;13.456;2022-08-18T08:07:28;19.60;;;15.45;;
70078;SDS011;57451;52.496;13.456;2022-08-18T08:10:00;22.57;;;15.40;;
70078;SDS011;57451;52.496;13.456;2022-08-18T08:12:38;18.42;;;14.43;;
70078;SDS011;57451;52.496;13.456;2022-08-18T08:15:11;17.55;;;13.52;;
70078;SDS011;57451;52.496;13.456;2022-08-18T08:17:49;17.92;;;13.32;;
70078;SDS011;57451;52.496;13.456;2022-08-18T08:20:22;20.48;;;13.70;;
70078;SDS011;57451;52.496;13.456;2022-08-18T08:22:59;17.30;;;13.30;;
70078;SDS011;57451;52.496;13.456;2022-08-18T08:25:35;17.52;;;13.30;;
70078;SDS011;57451;52.496;13.456;2022-08-18T08:28:11;18.40;;;13.70;;
70078;SDS011;57451;52.496;13.456;2022-08-18T08:30:51;17.75;;;13.50;;
70078;SDS011;57451;52.496;13.456;2022-08-18T08:33:32;21.35;;;13.80;;
70078;SDS011;57451;52.496;13.456;2022-08-18T08:36:03;20.03;;;13.77;;
70078;SDS011;57451;52.496;13.456;2022-08-18T08:38:36;16.58;;;13.38;;
70078;SDS011;57451;52.496;13.456;2022-08-18T08:41:08;20.80;;;14.00;;
70078;SDS011;57451;52.496;13.456;2022-08-18T08:43:39;20.55;;;13.60;;
70078;SDS011;57451;52.496;13.456;2022-08-18T08:46:09;19.58;;;14.35;;
70078;SDS011;57451;52.496;13.456;2022-08-18T08:48:40;21.98;;;13.85;;
70078;SDS011;57451;52.496;13.456;2022-08-18T08:51:13;22.27;;;14.52;;
70078;SDS011;57451;52.496;13.456;2022-08-18T08:53:48;20.67;;;14.02;;
70078;SDS011;57451;52.496;13.456;2022-08-18T08:56:20;17.95;;;12.93;;
70078;SDS011;57451;52.496;13.456;2022-08-18T08:58:53;18.67;;;13.35;;
70078;SDS011;57451;52.496;13.456;2022-08-18T09:01:24;18.03;;;13.23;;
70078;SDS011;57451;52.496;13.456;2022-08-18T09:03:57;16.55;;;12.93;;
70078;SDS011;57451;52.496;13.456;2022-08-18T09:06:33;18.67;;;13.20;;
70078;SDS011;57451;52.496;13.456;2022-08-18T09:09:17;19.20;;;12.57;;
70078;SDS011;57451;52.496;13.456;2022-08-18T09:12:00;17.67;;;13.10;;
70078;SDS011;57451;52.496;13.456;2022-08-18T09:15:02;18.65;;;12.93;;
70078;SDS011;57451;52.496;13.456;2022-08-18T09:18:04;18.83;;;13.40;;
70078;SDS011;57451;52.496;13.456;2022-08-18T09:20:52;17.85;;;13.05;;
70078;SDS011;57451;52.496;13.456;2022-08-18T09:23:26;16.83;;;13.25;;
70078;SDS011;57451;52.496;13.456;2022-08-18T09:25:57;19.10;;;12.43;;
70078;SDS011;57451;52.496;13.456;2022-08-18T09:28:51;14.50;;;12.27;;
70078;SDS011;57451;52.496;13.456;2022-08-18T09:31:23;13.20;;;11.43;;
70078;SDS011;57451;52.496;13.456;2022-08-18T09:33:54;21.25;;;12.20;;
70078;SDS011;57451;52.496;13.456;2022-08-18T09:36:49;16.63;;;12.55;;
70078;SDS011;57451;52.496;13.456;2022-08-18T09:39:26;17.45;;;12.70;;
70078;SDS011;57451;52.496;13.456;2022-08-18T09:42:15;18.77;;;12.73;;
70078;SDS011;57451;52.496;13.456;2022-08-18T09:44:55;16.38;;;12.65;;
70078;SDS011;57451;52.496;13.456;2022-08-18T09:59:49;21.40;;;12.10;;
70078;SDS011;57451;52.496;13.456;2022-08-18T10:05:54;16.05;;;11.63;;
70078;SDS011;57451;52.496;13.456;2022-08-18T10:11:26;14.10;;;12.00;;
70078;SDS011;57451;52.496;13.456;2022-08-18T10:14:10;16.90;;;11.85;;
70078;SDS011;57451;52.496;13.456;2022-08-18T10:16:52;17.27;;;12.43;;
70078;SDS011;57451;52.496;13.456;2022-08-18T10:19:26;16.92;;;11.70;;
70078;SDS011;57451;52.496;13.456;2022-08-18T10:22:03;17.90;;;12.07;;
70078;SDS011;57451;52.496;13.456;2022-08-18T10:24:33;14.68;;;11.25;;
70078;SDS011;57451;52.496;13.456;2022-08-18T10:30:01;18.58;;;11.35;;
70078;SDS011;57451;52.496;13.456;2022-08-18T10:32:39;12.48;;;10.88;;
70078;SDS011;57451;52.496;13.456;2022-08-18T10:38:19;17.63;;;10.55;;
70078;SDS011;57451;52.496;13.456;2022-08-18T10:40:53;14.10;;;10.23;;
70078;SDS011;57451;52.496;13.456;2022-08-18T10:43:27;11.52;;;9.85;;
70078;SDS011;57451;52.496;13.456;2022-08-18T10:45:58;13.35;;;10.20;;
70078;SDS011;57451;52.496;13.456;2022-08-18T10:48:26;14.73;;;9.57;;
70078;SDS011;57451;52.496;13.456;2022-08-18T10:51:00;14.38;;;9.85;;
70078;SDS011;57451;52.496;13.456;2022-08-18T10:53:32;12.90;;;9.73;;
70078;SDS011;57451;52.496;13.456;2022-08-18T10:56:04;11.82;;;9.48;;
70078;SDS011;57451;52.496;13.456;2022-08-18T10:58:41;14.38;;;9.90;;
70078;SDS011;57451;52.496;13.456;2022-08-18T11:01:21;13.98;;;10.07;;
70078;SDS011;57451;52.496;13.456;2022-08-18T11:04:02;12.45;;;9.38;;
70078;SDS011;57451;52.496;13.456;2022-08-18T11:06:35;14.73;;;9.80;;
70078;SDS011;57451;52.496;13.456;2022-08-18T11:09:06;11.93;;;9.38;;
70078;SDS011;57451;52.496;13.456;2022-08-18T11:11:35;13.60;;;9.60;;
70078;SDS011;57451;52.496;13.456;2022-08-18T11:14:11;11.23;;;8.93;;
70078;SDS011;57451;52.496;13.456;2022-08-18T11:16:52;10.80;;;9.05;;
70078;SDS011;57451;52.496;13.456;2022-08-18T11:19:25;11.65;;;8.93;;
70078;SDS011;57451;52.496;13.456;2022-08-18T11:21:51;11.10;;;8.77;;
70078;SDS011;57451;52.496;13.456;2022-08-18T11:24:19;11.50;;;8.80;;
70078;SDS011;57451;52.496;13.456;2022-08-18T11:26:50;15.73;;;8.95;;
70078;SDS011;57451;52.496;13.456;2022-08-18T11:29:24;13.95;;;9.73;;
70078;SDS011;57451;52.496;13.456;2022-08-18T11:31:56;13.63;;;8.55;;
70078;SDS011;57451;52.496;13.456;2022-08-18T11:34:27;13.35;;;9.43;;
70078;SDS011;57451;52.496;13.456;2022-08-18T11:37:00;12.25;;;8.90;;
70078;SDS011;57451;52.496;13.456;2022-08-18T11:39:28;12.25;;;8.82;;
70078;SDS011;57451;52.496;13.456;2022-08-18T11:41:56;13.13;;;8.48;;
70078;SDS011;57451;52.496;13.456;2022-08-18T11:44:25;10.13;;;8.25;;
70078;SDS011;57451;52.496;13.456;2022-08-18T11:47:11;11.35;;;8.02;;
70078;SDS011;57451;52.496;13.456;2022-08-18T11:49:47;10.43;;;8.40;;
70078;SDS011;57451;52.496;13.456;2022-08-18T11:52:18;9.27;;;8.25;;
70078;SDS011;57451;52.496;13.456;2022-08-18T11:54:48;8.48;;;7.57;;
70078;SDS011;57451;52.496;13.456;2022-08-18T12:03:03;8.80;;;7.53;;
70078;SDS011;57451;52.496;13.456;2022-08-18T12:05:39;9.40;;;8.45;;
70078;SDS011;57451;52.496;13.456;2022-08-18T12:08:14;13.13;;;7.93;;
70078;SDS011;57451;52.496;13.456;2022-08-18T12:10:42;11.52;;;7.18;;
70078;SDS011;57451;52.496;13.456;2022-08-18T12:13:10;8.82;;;7.20;;
70078;SDS011;57451;52.496;13.456;2022-08-18T12:15:47;8.55;;;7.28;;
70078;SDS011;57451;52.496;13.456;2022-08-18T12:18:31;10.05;;;7.63;;
70078;SDS011;57451;52.496;13.456;2022-08-18T12:20:58;9.70;;;7.28;;
70078;SDS011;57451;52.496;13.456;2022-08-18T12:23:24;8.90;;;7.80;;
70078;SDS011;57451;52.496;13.456;2022-08-18T12:25:50;10.10;;;7.85;;
70078;SDS011;57451;52.496;13.456;2022-08-18T12:28:18;9.38;;;7.35;;
70078;SDS011;57451;52.496;13.456;2022-08-18T12:30:44;9.77;;;6.72;;
70078;SDS011;57451;52.496;13.456;2022-08-18T12:33:10;8.45;;;7.50;;
70078;SDS011;57451;52.496;13.456;2022-08-18T12:35:36;10.43;;;7.65;;
70078;SDS011;57451;52.496;13.456;2022-08-18T12:38:03;9.15;;;7.18;;
70078;SDS011;57451;52.496;13.456;2022-08-18T12:40:29;9.10;;;7.38;;
70078;SDS011;57451;52.496;13.456;2022-08-18T12:42:55;8.90;;;6.63;;
70078;SDS011;57451;52.496;13.456;2022-08-18T12:45:23;9.63;;;7.10;;
70078;SDS011;57451;52.496;13.456;2022-08-18T12:47:51;9.85;;;7.40;;
70078;SDS011;57451;52.496;13.456;2022-08-18T12:50:17;13.18;;;6.90;;
70078;SDS011;57451;52.496;13.456;2022-08-18T12:52:44;7.85;;;6.88;;
70078;SDS011;57451;52.496;13.456;2022-08-18T12:55:10;8.15;;;7.05;;
70078;SDS011;57451;52.496;13.456;2022-08-18T12:57:36;7.45;;;6.75;;
70078;SDS011;57451;52.496;13.456;2022-08-18T13:00:03;10.05;;;7.68;;
70078;SDS011;57451;52.496;13.456;2022-08-18T13:02:31;8.48;;;7.55;;
70078;SDS011;57451;52.496;13.456;2022-08-18T13:04:58;9.55;;;7.40;;
70078;SDS011;57451;52.496;13.456;2022-08-18T13:07:24;8.82;;;7.80;;
70078;SDS011;57451;52.496;13.456;2022-08-18T13:09:50;8.40;;;7.53;;
70078;SDS011;57451;52.496;13.456;2022-08-18T13:12:17;10.63;;;7.63;;
70078;SDS011;57451;52.496;13.456;2022-08-18T13:14:44;9.20;;;7.38;;
70078;SDS011;57451;52.496;13.456;2022-08-18T13:17:11;8.70;;;7.78;;
70078;SDS011;57451;52.496;13.456;2022-08-18T13:19:38;9.43;;;8.45;;
70078;SDS011;57451;52.496;13.456;2022-08-18T13:22:05;10.07;;;8.20;;
70078;SDS011;57451;52.496;13.456;2022-08-18T13:24:31;9.18;;;8.05;;
70078;SDS011;57451;52.496;13.456;2022-08-18T13:26:57;10.07;;;9.07;;
70078;SDS011;57451;52.496;13.456;2022-08-18T13:29:23;10.63;;;8.40;;
70078;SDS011;57451;52.496;13.456;2022-08-18T13:31:50;10.63;;;9.07;;
70078;SDS011;57451;52.496;13.456;2022-08-18T13:34:22;13.20;;;9.90;;
70078;SDS011;57451;52.496;13.456;2022-08-18T13:36:50;8.63;;;7.72;;
70078;SDS011;57451;52.496;13.456;2022-08-18T13:39:17;11.85;;;8.82;;
70078;SDS011;57451;52.496;13.456;2022-08-18T13:41:45;9.88;;;7.88;;
70078;SDS011;57451;52.496;13.456;2022-08-18T13:44:13;8.93;;;7.93;;
70078;SDS011;57451;52.496;13.456;2022-08-18T13:46:42;10.30;;;9.18;;
70078;SDS011;57451;52.496;13.456;2022-08-18T13:49:11;10.80;;;9.00;;
70078;SDS011;57451;52.496;13.456;2022-08-18T13:51:40;11.68;;;10.43;;
70078;SDS011;57451;52.496;13.456;2022-08-18T13:54:09;14.00;;;10.13;;
70078;SDS011;57451;52.496;13.456;2022-08-18T13:56:37;13.80;;;9.52;;
70078;SDS011;57451;52.496;13.456;2022-08-18T13:59:03;12.50;;;9.63;;
70078;SDS011;57451;52.496;13.456;2022-08-18T14:01:30;11.88;;;9.50;;
70078;SDS011;57451;52.496;13.456;2022-08-18T14:03:56;13.10;;;9.85;;
70078;SDS011;57451;52.496;13.456;2022-08-18T14:06:22;11.15;;;9.82;;
70078;SDS011;57451;52.496;13.456;2022-08-18T14:08:49;11.02;;;9.65;;
70078;SDS011;57451;52.496;13.456;2022-08-18T14:11:17;10.68;;;9.60;;
70078;SDS011;57451;52.496;13.456;2022-08-18T14:13:44;11.35;;;9.60;;
70078;SDS011;57451;52.496;13.456;2022-08-18T14:16:11;11.85;;;9.65;;
70078;SDS011;57451;52.496;13.456;2022-08-18T14:18:37;9.85;;;8.85;;
70078;SDS011;57451;52.496;13.456;2022-08-18T14:21:03;12.13;;;9.52;;
70078;SDS011;57451;52.496;13.456;2022-08-18T14:23:49;11.30;;;9.57;;
70078;SDS011;57451;52.496;13.456;2022-08-18T14:26:35;11.07;;;9.23;;
70078;SDS011;57451;52.496;13.456;2022-08-18T14:29:13;13.52;;;9.40;;
70078;SDS011;57451;52.496;13.456;2022-08-18T14:31:40;11.38;;;9.35;;
70078;SDS011;57451;52.496;13.456;2022-08-18T14:34:07;13.80;;;9.50;;
70078;SDS011;57451;52.496;13.456;2022-08-18T14:36:33;11.30;;;9.15;;
70078;SDS011;57451;52.496;13.456;2022-08-18T14:39:00;11.75;;;9.35;;
70078;SDS011;57451;52.496;13.456;2022-08-18T14:41:27;10.55;;;8.85;;
70078;SDS011;57451;52.496;13.456;2022-08-18T14:43:55;12.93;;;9.20;;
70078;SDS011;57451;52.496;13.456;2022-08-18T14:46:22;12.50;;;9.73;;
70078;SDS011;57451;52.496;13.456;2022-08-18T14:48:49;11.13;;;9.20;;
70078;SDS011;57451;52.496;13.456;2022-08-18T14:51:15;14.55;;;9.02;;
70078;SDS011;57451;52.496;13.456;2022-08-18T14:53:41;11.27;;;9.45;;
70078;SDS011;57451;52.496;13.456;2022-08-18T14:56:08;10.15;;;9.05;;
70078;SDS011;57451;52.496;13.456;2022-08-18T14:58:36;11.40;;;9.05;;
70078;SDS011;57451;52.496;13.456;2022-08-18T15:01:07;12.05;;;9.23;;
70078;SDS011;57451;52.496;13.456;2022-08-18T15:03:36;11.18;;;9.98;;
70078;SDS011;57451;52.496;13.456;2022-08-18T15:06:03;11.45;;;8.65;;
70078;SDS011;57451;52.496;13.456;2022-08-18T15:08:31;11.82;;;8.35;;
70078;SDS011;57451;52.496;13.456;2022-08-18T15:10:58;10.43;;;7.72;;